Terminal Aerodrome Forecast
Issued by NWS

Home | Current Version | Previous Version | Graphics & Text | Print | Product List | Glossary On
Versions: 1 2 3 4 5 6 7 8 9 10 11 12 13 14 15 16 17 18 19 20 21
431
FTUS43 KIWX 041343 AAA
TAFSBN
TAF AMD
KSBN 041343Z 0414/0512 12005KT P6SM BKN025 OVC100
     FM041700 13007KT 2SM -SN BR OVC015
     FM041900 14008KT 1/2SM SN FG OVC005
     FM050000 21006KT 3SM -SN BR OVC009
     FM050400 24008KT P6SM OVC010=

USA.gov is the U.S. government's official web portal to all federal, state and local government web resources and services.